createdAt,value
2014-09-28T00:00:38.204Z,16.35
2014-09-28T00:01:42.877Z,15.64
2014-09-28T00:02:47.568Z,15.24
2014-09-28T00:03:52.538Z,15.28
2014-09-28T00:04:57.212Z,15.72
2014-09-28T00:06:01.886Z,15.87
2014-09-28T00:07:06.872Z,15.96
2014-09-28T00:08:11.546Z,16.1
2014-09-28T00:09:16.220Z,16.09
2014-09-28T00:10:20.910Z,16.06
2014-09-28T00:11:25.584Z,16.1
2014-09-28T00:12:30.257Z,16.04
2014-09-28T00:13:34.947Z,16.13
2014-09-28T00:14:39.621Z,15.7
2014-09-28T00:15:44.296Z,15.61
2014-09-28T00:16:49.281Z,15.27
2014-09-28T00:17:54.268Z,15.15
2014-09-28T00:18:58.942Z,15.02
2014-09-28T00:20:03.615Z,14.96
2014-09-28T00:21:08.602Z,14.85
2014-09-28T00:22:13.573Z,14.84
2014-09-28T00:23:18.561Z,14.82
2014-09-28T00:24:23.234Z,14.81
2014-09-28T00:25:28.220Z,14.78
2014-09-28T00:26:32.925Z,14.78
2014-09-28T00:27:37.600Z,14.7
2014-09-28T00:28:42.586Z,14.73
2014-09-28T00:29:47.276Z,14.66
2014-09-28T00:30:51.950Z,14.58
2014-09-28T00:31:56.936Z,14.76
2014-09-28T00:33:01.610Z,14.72
2014-09-28T00:34:06.298Z,14.88
2014-09-28T00:35:10.973Z,14.94
2014-09-28T00:36:15.647Z,14.9
2014-09-28T00:37:20.337Z,14.61
2014-09-28T00:38:25.011Z,14.87
2014-09-28T00:39:29.981Z,15.08
2014-09-28T00:40:34.967Z,14.8
2014-09-28T00:41:39.251Z,14.66
2014-09-28T00:42:44.237Z,14.6
2014-09-28T00:43:48.911Z,14.59
2014-09-28T00:44:53.881Z,14.85
2014-09-28T00:45:57.884Z,15.15
2014-09-28T00:47:02.558Z,15.24
2014-09-28T00:48:07.825Z,14.93
2014-09-28T00:49:12.515Z,14.72
2014-09-28T00:50:17.191Z,14.78
2014-09-28T00:51:22.162Z,14.97
2014-09-28T00:52:26.851Z,14.72
2014-09-28T00:53:31.525Z,14.67
2014-09-28T00:54:36.199Z,14.84
2014-09-28T00:55:40.888Z,14.7
2014-09-28T00:56:45.562Z,14.6
2014-09-28T00:57:50.550Z,14.56
2014-09-28T00:58:55.222Z,14.98
2014-09-28T01:00:00.209Z,15.22
2014-09-28T01:01:04.883Z,15.36
2014-09-28T01:02:09.573Z,15.22
2014-09-28T01:03:14.246Z,15.28
2014-09-28T01:04:19.233Z,14.99
2014-09-28T01:05:23.907Z,14.78
2014-09-28T01:06:28.597Z,14.63
2014-09-28T01:07:33.270Z,14.5
2014-09-28T01:08:37.945Z,14.42
2014-09-28T01:09:42.619Z,14.43
2014-09-28T01:10:47.292Z,14.3
2014-09-28T01:11:51.982Z,14.39
2014-09-28T01:12:56.656Z,14.36
2014-09-28T01:14:01.330Z,14.3
2014-09-28T01:15:06.020Z,14.36
2014-09-28T01:16:10.990Z,14.3
2014-09-28T01:17:15.961Z,14.64
2014-09-28T01:18:19.963Z,14.6
2014-09-28T01:19:24.637Z,14.29
2014-09-28T01:20:29.310Z,14.24
2014-09-28T01:21:34.298Z,14.56
2014-09-28T01:22:38.972Z,14.34
2014-09-28T01:23:43.661Z,14.25
2014-09-28T01:24:48.335Z,14.22
2014-09-28T01:25:53.009Z,14.24
2014-09-28T01:26:57.698Z,14.13
2014-09-28T01:28:02.372Z,14.14
2014-09-28T01:29:07.046Z,14.08
2014-09-28T01:30:11.736Z,14.15
2014-09-28T01:31:16.409Z,14.18
2014-09-28T01:32:21.082Z,14.06
2014-09-28T01:33:26.070Z,14.03
2014-09-28T01:34:30.744Z,14.06
2014-09-28T01:35:35.730Z,14.02
2014-09-28T01:36:40.404Z,14.32
2014-09-28T01:37:45.093Z,14.58
2014-09-28T01:38:49.767Z,14.66
2014-09-28T01:39:54.457Z,14.23
2014-09-28T01:40:59.131Z,14.07
2014-09-28T01:42:04.117Z,14.08
2014-09-28T01:43:08.791Z,14
2014-09-28T01:44:13.762Z,13.96
2014-09-28T01:45:18.748Z,14.19
2014-09-28T01:46:24.016Z,14.25
2014-09-28T01:47:28.689Z,14.02
2014-09-28T01:48:33.379Z,14.1
2014-09-28T01:49:38.055Z,14.47
2014-09-28T01:50:42.728Z,14.78
2014-09-28T01:51:47.417Z,14.5
2014-09-28T01:52:52.092Z,14.33
2014-09-28T01:53:56.765Z,14.08
2014-09-28T01:55:01.752Z,14.39
2014-09-28T01:56:06.425Z,14.74
2014-09-28T01:57:11.116Z,14.57
2014-09-28T01:58:16.086Z,14.24
2014-09-28T01:59:20.760Z,13.94
2014-09-28T02:00:25.434Z,14.14
2014-09-28T02:01:30.124Z,14.02
2014-09-28T02:02:34.798Z,14.24
2014-09-28T02:03:39.471Z,14.52
2014-09-28T02:04:44.145Z,14.5
2014-09-28T02:05:48.835Z,14.14
2014-09-28T02:06:53.806Z,14.24
2014-09-28T02:07:58.495Z,14.28
2014-09-28T02:09:03.169Z,14.28
2014-09-28T02:10:07.858Z,14.16
2014-09-28T02:11:12.829Z,14
2014-09-28T02:12:17.519Z,13.96
2014-09-28T02:13:22.194Z,13.96
2014-09-28T02:14:27.180Z,13.88
2014-09-28T02:15:31.854Z,13.94
2014-09-28T02:16:36.839Z,13.96
2014-09-28T02:17:41.514Z,13.96
2014-09-28T02:18:46.499Z,14.07
2014-09-28T02:19:51.470Z,13.96
2014-09-28T02:20:56.145Z,14.16
2014-09-28T02:22:01.115Z,14.26
2014-09-28T02:23:05.805Z,14.43
2014-09-28T02:24:10.478Z,14.49
2014-09-28T02:25:15.153Z,14.68
2014-09-28T02:26:19.843Z,14.64
2014-09-28T02:27:24.516Z,14.7
2014-09-28T02:28:29.487Z,14.76
2014-09-28T02:29:33.489Z,14.8
2014-09-28T02:30:38.163Z,14.66
2014-09-28T02:31:43.149Z,14.78
2014-09-28T02:32:48.121Z,14.71
2014-09-28T02:33:52.795Z,14.82
2014-09-28T02:34:57.484Z,14.34
2014-09-28T02:36:02.158Z,14.28
2014-09-28T02:37:06.832Z,14.59
2014-09-28T02:38:11.819Z,14.87
2014-09-28T02:39:16.493Z,15.05
2014-09-28T02:40:21.166Z,14.97
2014-09-28T02:41:26.153Z,15.09
2014-09-28T02:42:31.124Z,15.06
2014-09-28T02:43:36.094Z,15.17
2014-09-28T02:44:40.785Z,14.74
2014-09-28T02:45:45.458Z,14.91
2014-09-28T02:46:50.147Z,14.68
2014-09-28T02:47:55.119Z,14.58
2014-09-28T02:48:59.792Z,14.72
2014-09-28T02:50:04.779Z,14.62
2014-09-28T02:51:09.749Z,14.24
2014-09-28T02:52:14.438Z,14.22
2014-09-28T02:53:19.410Z,13.96
2014-09-28T02:54:24.693Z,13.97
2014-09-28T02:55:29.664Z,14
2014-09-28T02:56:34.354Z,13.96
2014-09-28T02:57:39.324Z,14.07
2014-09-28T02:58:43.325Z,14.28
2014-09-28T02:59:47.999Z,14.5
2014-09-28T03:00:52.674Z,14.06
2014-09-28T03:01:57.348Z,14
2014-09-28T03:03:02.022Z,13.9
2014-09-28T03:04:06.711Z,13.65
2014-09-28T03:05:11.385Z,13.78
2014-09-28T03:06:16.061Z,14.23
2014-09-28T03:07:20.735Z,14.24
2014-09-28T03:08:25.425Z,14.24
2014-09-28T03:09:30.098Z,14.5
2014-09-28T03:10:34.788Z,14.5
2014-09-28T03:11:39.462Z,14.6
2014-09-28T03:12:44.136Z,14.41
2014-09-28T03:13:48.810Z,14.74
2014-09-28T03:14:54.093Z,14.84
2014-09-28T03:15:59.064Z,14.63
2014-09-28T03:17:04.050Z,14.56
2014-09-28T03:18:09.021Z,14.18
2014-09-28T03:19:13.007Z,14.06
2014-09-28T03:20:17.993Z,13.88
2014-09-28T03:21:22.667Z,13.84
2014-09-28T03:22:27.357Z,13.9
2014-09-28T03:23:32.031Z,13.85
2014-09-28T03:24:36.706Z,13.68
2014-09-28T03:25:41.394Z,13.64
2014-09-28T03:26:46.068Z,13.63
2014-09-28T03:27:50.742Z,13.65
2014-09-28T03:28:55.432Z,13.56
2014-09-28T03:30:00.700Z,13.54
2014-09-28T03:31:05.373Z,13.48
2014-09-28T03:32:10.345Z,13.51
2014-09-28T03:33:15.033Z,13.58
2014-09-28T03:34:20.005Z,13.55
2014-09-28T03:35:24.679Z,13.31
2014-09-28T03:36:29.367Z,13.8
2014-09-28T03:37:34.058Z,14.16
2014-09-28T03:38:39.028Z,13.8
2014-09-28T03:39:43.702Z,13.6
2014-09-28T03:40:48.376Z,13.55
2014-09-28T03:41:53.066Z,13.57
2014-09-28T03:42:57.740Z,13.52
2014-09-28T03:44:02.413Z,13.4
2014-09-28T03:45:07.103Z,13.93
2014-09-28T03:46:11.781Z,14.2
2014-09-28T03:47:16.526Z,14.29
2014-09-28T03:48:21.296Z,13.93
2014-09-28T03:49:26.012Z,13.7
2014-09-28T03:50:30.720Z,13.64
2014-09-28T03:51:35.722Z,13.46
2014-09-28T03:52:40.410Z,13.44
2014-09-28T03:53:45.114Z,13.72
2014-09-28T03:54:49.804Z,13.6
2014-09-28T03:55:54.785Z,13.48
2014-09-28T03:56:59.463Z,13.46
2014-09-28T03:58:04.157Z,13.38
2014-09-28T03:59:08.837Z,13.36
2014-09-28T04:00:12.828Z,13.7
2014-09-28T04:01:17.506Z,14.03
2014-09-28T04:02:22.198Z,13.95
2014-09-28T04:03:26.874Z,14.11
2014-09-28T04:04:31.549Z,13.88
2014-09-28T04:05:36.538Z,13.56
2014-09-28T04:06:41.509Z,13.36
2014-09-28T04:07:46.184Z,13.42
2014-09-28T04:08:51.172Z,13.36
2014-09-28T04:09:55.847Z,13.24
2014-09-28T04:11:00.537Z,13.72
2014-09-28T04:12:05.211Z,14.04
2014-09-28T04:13:09.901Z,14.13
2014-09-28T04:14:14.607Z,14.26
2014-09-28T04:15:19.281Z,14.52
2014-09-28T04:16:23.955Z,14.56
2014-09-28T04:17:28.645Z,14.66
2014-09-28T04:18:33.319Z,14.56
2014-09-28T04:19:38.008Z,14.5
2014-09-28T04:20:42.979Z,14.68
2014-09-28T04:21:47.667Z,14.79
2014-09-28T04:22:52.342Z,14.65
2014-09-28T04:23:57.330Z,14.04
2014-09-28T04:25:02.300Z,13.76
2014-09-28T04:26:06.990Z,14.12
2014-09-28T04:27:11.664Z,14.4
2014-09-28T04:28:16.338Z,14.58
2014-09-28T04:29:21.324Z,14.48
2014-09-28T04:30:26.295Z,14.46
2014-09-28T04:31:30.968Z,14.2
2014-09-28T04:32:35.657Z,13.84
2014-09-28T04:33:40.332Z,13.71
2014-09-28T04:34:45.303Z,13.61
2014-09-28T04:35:49.992Z,13.55
2014-09-28T04:36:54.666Z,13.36
2014-09-28T04:37:59.340Z,13.27
2014-09-28T04:39:04.014Z,13.34
2014-09-28T04:40:09.000Z,13.3
2014-09-28T04:41:13.674Z,13.32
2014-09-28T04:42:18.645Z,13.37
2014-09-28T04:43:23.319Z,13.28
2014-09-28T04:44:28.008Z,13.25
2014-09-28T04:45:32.682Z,13.17
2014-09-28T04:46:37.356Z,13.35
2014-09-28T04:47:42.030Z,13.34
2014-09-28T04:48:46.719Z,13.2
2014-09-28T04:49:51.692Z,13.16
2014-09-28T04:50:56.663Z,13.14
2014-09-28T04:52:01.337Z,13.23
2014-09-28T04:53:06.026Z,13.26
2014-09-28T04:54:10.700Z,13.18
2014-09-28T04:55:15.375Z,13.26
2014-09-28T04:56:20.065Z,13.31
2014-09-28T04:57:24.348Z,13.23
2014-09-28T04:58:29.052Z,13.25
2014-09-28T04:59:33.727Z,13.27
2014-09-28T05:00:38.416Z,13.18
2014-09-28T05:01:43.386Z,13.12
2014-09-28T05:02:48.076Z,13.03
2014-09-28T05:03:52.750Z,12.96
2014-09-28T05:04:57.424Z,12.85
2014-09-28T05:06:02.411Z,12.78
2014-09-28T05:07:07.084Z,12.83
2014-09-28T05:08:11.774Z,12.93
2014-09-28T05:09:16.448Z,13.34
2014-09-28T05:10:21.122Z,13.27
2014-09-28T05:11:26.108Z,13.09
2014-09-28T05:12:30.782Z,13.08
2014-09-28T05:13:35.456Z,12.99
2014-09-28T05:14:40.130Z,13.06
2014-09-28T05:15:44.819Z,13.03
2014-09-28T05:16:49.493Z,13.2
2014-09-28T05:17:54.168Z,13.65
2014-09-28T05:18:59.139Z,13.72
2014-09-28T05:20:04.114Z,13.83
2014-09-28T05:21:08.803Z,13.84
2014-09-28T05:22:13.478Z,13.9
2014-09-28T05:23:18.167Z,13.87
2014-09-28T05:24:22.841Z,13.54
2014-09-28T05:25:27.515Z,13.44
2014-09-28T05:26:32.205Z,14.02
2014-09-28T05:27:36.878Z,14.22
2014-09-28T05:28:40.880Z,14.04
2014-09-28T05:29:45.554Z,13.7
2014-09-28T05:30:50.243Z,13.48
2014-09-28T05:31:54.917Z,13.48
2014-09-28T05:32:59.607Z,13.33
2014-09-28T05:34:04.281Z,13.46
2014-09-28T05:35:08.955Z,14.01
2014-09-28T05:36:13.644Z,14.28
2014-09-28T05:37:18.615Z,14.48
2014-09-28T05:38:23.898Z,14.43
2014-09-28T05:39:28.572Z,14.6
2014-09-28T05:40:33.246Z,14.54
2014-09-28T05:41:37.936Z,14.61
2014-09-28T05:42:42.609Z,14.45
2014-09-28T05:43:47.283Z,14.45
2014-09-28T05:44:52.265Z,14.36
2014-09-28T05:45:56.941Z,14.11
2014-09-28T05:47:01.615Z,13.92
2014-09-28T05:48:06.303Z,13.7
2014-09-28T05:49:10.977Z,13.68
2014-09-28T05:50:15.949Z,13.59
2014-09-28T05:51:20.638Z,13.57
2014-09-28T05:52:25.609Z,13.62
2014-09-28T05:53:30.877Z,13.64
2014-09-28T05:54:35.551Z,13.52
2014-09-28T05:55:40.240Z,13.47
2014-09-28T05:56:45.211Z,13.44
2014-09-28T05:57:49.886Z,13.52
2014-09-28T05:58:54.872Z,13.44
2014-09-28T05:59:59.545Z,13.68
2014-09-28T06:01:04.219Z,13.71
2014-09-28T06:02:08.909Z,13.8
2014-09-28T06:03:13.582Z,14.02
2014-09-28T06:04:18.256Z,14.62
2014-09-28T06:05:22.946Z,14.68
2014-09-28T06:06:27.619Z,14.35
2014-09-28T06:07:32.293Z,14.24
2014-09-28T06:08:36.983Z,14.22
2014-09-28T06:09:41.657Z,14.28
2014-09-28T06:10:46.643Z,14.35
2014-09-28T06:11:51.317Z,14.79
2014-09-28T06:12:56.006Z,15.07
2014-09-28T06:14:00.680Z,15.28
2014-09-28T06:15:05.371Z,15.54
2014-09-28T06:16:10.044Z,15.54
2014-09-28T06:17:15.030Z,15.32
2014-09-28T06:18:19.705Z,15.06
2014-09-28T06:19:24.378Z,15.04
2014-09-28T06:20:29.661Z,15.21
2014-09-28T06:21:34.337Z,15.84
2014-09-28T06:22:39.324Z,16.95
2014-09-28T06:23:44.013Z,18.37
2014-09-28T06:24:48.687Z,19.36
2014-09-28T06:25:53.658Z,20.43
2014-09-28T06:26:58.347Z,21.16
2014-09-28T06:28:03.021Z,21.32
2014-09-28T06:29:07.710Z,21.57
2014-09-28T06:30:12.384Z,21.62
2014-09-28T06:31:17.371Z,21.26
2014-09-28T06:32:22.060Z,20.87
2014-09-28T06:33:26.750Z,21.71
2014-09-28T06:34:31.736Z,22.55
2014-09-28T06:35:36.426Z,22.58
2014-09-28T06:36:41.397Z,21.97
2014-09-28T06:37:46.086Z,21.61
2014-09-28T06:38:50.761Z,21.23
2014-09-28T06:39:55.449Z,22.12
2014-09-28T06:41:00.140Z,23.06
2014-09-28T06:42:05.110Z,22.72
2014-09-28T06:43:09.111Z,22.84
2014-09-28T06:44:13.801Z,23.3
2014-09-28T06:45:18.475Z,23.52
2014-09-28T06:46:23.165Z,23.68
2014-09-28T06:47:28.151Z,23.91
2014-09-28T06:48:32.841Z,24.46
2014-09-28T06:49:37.827Z,24.94
2014-09-28T06:50:42.814Z,24.89
2014-09-28T06:51:47.815Z,24.9
2014-09-28T06:52:52.802Z,25.67
2014-09-28T06:53:57.476Z,25.76
2014-09-28T06:55:02.167Z,26.39
2014-09-28T06:56:06.857Z,26.46
2014-09-28T06:57:11.546Z,25.67
2014-09-28T06:58:16.252Z,23.72
2014-09-28T06:59:20.926Z,21.93
2014-09-28T07:00:25.631Z,20.49
2014-09-28T07:01:30.319Z,20.12
2014-09-28T07:02:35.010Z,19.57
2014-09-28T07:03:39.715Z,19.2
2014-09-28T07:04:44.389Z,19.39
2014-09-28T07:05:49.078Z,19.71
2014-09-28T07:06:54.065Z,19.55
2014-09-28T07:07:59.035Z,19.07
2014-09-28T07:09:03.725Z,19.27
2014-09-28T07:10:08.711Z,18.94
2014-09-28T07:11:13.386Z,18.24
2014-09-28T07:12:18.075Z,18.31
2014-09-28T07:13:22.748Z,18.51
2014-09-28T07:14:27.439Z,18.47
2014-09-28T07:15:32.113Z,18.32
2014-09-28T07:16:36.818Z,18.35
2014-09-28T07:17:41.804Z,18.24
2014-09-28T07:18:46.791Z,18.32
2014-09-28T07:19:51.465Z,18.63
2014-09-28T07:20:56.154Z,18.64
2014-09-28T07:22:00.828Z,18.58
2014-09-28T07:23:05.517Z,18.28
2014-09-28T07:24:10.504Z,18.66
2014-09-28T07:25:15.193Z,19.06
2014-09-28T07:26:19.867Z,18.46
2014-09-28T07:27:24.558Z,17.88
2014-09-28T07:28:29.231Z,17.56
2014-09-28T07:29:33.921Z,17.84
2014-09-28T07:30:38.595Z,18.22
2014-09-28T07:31:43.284Z,18.32
2014-09-28T07:32:47.958Z,18.34
2014-09-28T07:33:52.631Z,18.19
2014-09-28T07:34:57.619Z,18.3
2014-09-28T07:36:02.308Z,18.83
2014-09-28T07:37:07.279Z,18.86
2014-09-28T07:38:11.968Z,19.09
2014-09-28T07:39:16.642Z,18.77
2014-09-28T07:40:21.332Z,18.6
2014-09-28T07:41:26.006Z,18.62
2014-09-28T07:42:30.993Z,18.72
2014-09-28T07:43:35.667Z,18.34
2014-09-28T07:44:40.652Z,18.24
2014-09-28T07:45:45.327Z,18.37
2014-09-28T07:46:50.017Z,18.55
2014-09-28T07:47:54.690Z,18.59
2014-09-28T07:48:59.380Z,18.69
2014-09-28T07:50:04.351Z,18.74
2014-09-28T07:51:09.040Z,18.86
2014-09-28T07:52:13.715Z,19.04
2014-09-28T07:53:18.404Z,19.09
2014-09-28T07:54:23.077Z,18.82
2014-09-28T07:55:27.768Z,19.2
2014-09-28T07:56:32.738Z,18.84
2014-09-28T07:57:37.725Z,19.13
2014-09-28T07:58:42.415Z,19.28
2014-09-28T07:59:47.087Z,19.27
2014-09-28T08:00:51.778Z,19.4
2014-09-28T08:01:56.452Z,19.55
2014-09-28T08:03:01.126Z,19.47
2014-09-28T08:04:05.814Z,19.41
2014-09-28T08:05:10.505Z,19.24
2014-09-28T08:06:15.475Z,18.9
2014-09-28T08:07:20.165Z,18.6
2014-09-28T08:08:24.839Z,19.15
2014-09-28T08:09:29.528Z,19.7
2014-09-28T08:10:34.202Z,19.69
2014-09-28T08:11:39.189Z,19.37
2014-09-28T08:12:43.862Z,19.22
2014-09-28T08:13:48.553Z,19.02
2014-09-28T08:14:53.242Z,19.08
2014-09-28T08:15:57.915Z,19.24
2014-09-28T08:17:02.903Z,19.32
2014-09-28T08:18:07.186Z,19.36
2014-09-28T08:19:12.172Z,19.46
2014-09-28T08:20:17.143Z,19.93
2014-09-28T08:21:22.129Z,19.99
2014-09-28T08:22:26.803Z,19.58
2014-09-28T08:23:31.493Z,19.73
2014-09-28T08:24:36.167Z,19.54
2014-09-28T08:25:40.856Z,20.04
2014-09-28T08:26:45.828Z,19.71
2014-09-28T08:27:50.516Z,19.59
2014-09-28T08:28:55.190Z,19.33
2014-09-28T08:29:59.881Z,19.42
2014-09-28T08:31:04.570Z,19.48
2014-09-28T08:32:09.259Z,19.4
2014-09-28T08:33:13.949Z,19.26
2014-09-28T08:34:18.622Z,19.63
2014-09-28T08:35:23.313Z,19.52
2014-09-28T08:36:28.299Z,19.69
2014-09-28T08:37:32.973Z,20.06
2014-09-28T08:38:37.959Z,20.34
2014-09-28T08:39:42.633Z,20.66
2014-09-28T08:40:47.323Z,20.99
2014-09-28T08:41:52.012Z,20.42
2014-09-28T08:42:56.984Z,20.48
2014-09-28T08:44:01.969Z,20.79
2014-09-28T08:45:06.659Z,20.58
2014-09-28T08:46:11.334Z,20.3
2014-09-28T08:47:16.023Z,20.26
2014-09-28T08:48:20.697Z,20.12
2014-09-28T08:49:25.387Z,20.17
2014-09-28T08:50:30.373Z,20.26
2014-09-28T08:51:35.344Z,20.32
2014-09-28T08:52:40.033Z,19.78
2014-09-28T08:53:45.005Z,19.56
2014-09-28T08:54:49.006Z,19.64
2014-09-28T08:55:53.696Z,19.88
2014-09-28T08:56:58.666Z,19.82
2014-09-28T08:58:03.357Z,19.89
2014-09-28T08:59:08.046Z,20
2014-09-28T09:00:12.720Z,20.16
2014-09-28T09:01:17.394Z,20.24
2014-09-28T09:02:22.083Z,20.25
2014-09-28T09:03:26.773Z,20.22
2014-09-28T09:04:31.447Z,20.39
2014-09-28T09:05:36.136Z,20.16
2014-09-28T09:06:40.810Z,20.6
2014-09-28T09:07:45.797Z,20.52
2014-09-28T09:08:50.470Z,20.45
2014-09-28T09:09:55.161Z,20.54
2014-09-28T09:10:59.835Z,20.72
2014-09-28T09:12:04.820Z,20.56
2014-09-28T09:13:09.511Z,20.28
2014-09-28T09:14:14.185Z,20.46
2014-09-28T09:15:18.873Z,20.45
2014-09-28T09:16:23.548Z,20.28
2014-09-28T09:17:28.237Z,20.24
2014-09-28T09:18:32.927Z,20.38
2014-09-28T09:19:37.616Z,20.4
2014-09-28T09:20:42.603Z,20.69
2014-09-28T09:21:47.574Z,20.62
2014-09-28T09:22:52.264Z,20.5
2014-09-28T09:23:56.938Z,20.58
2014-09-28T09:25:01.626Z,20.61
2014-09-28T09:26:06.597Z,20.92
2014-09-28T09:27:10.897Z,20.34
2014-09-28T09:28:15.882Z,20.91
2014-09-28T09:29:20.556Z,20.84
2014-09-28T09:30:25.247Z,20.88
2014-09-28T09:31:29.936Z,21.11
2014-09-28T09:32:34.907Z,21.16
2014-09-28T09:33:39.597Z,20.92
2014-09-28T09:34:44.583Z,21.02
2014-09-28T09:35:48.569Z,20.75
2014-09-28T09:36:53.259Z,21.1
2014-09-28T09:37:58.230Z,21.21
2014-09-28T09:39:02.920Z,21.29
2014-09-28T09:40:07.905Z,21.04
2014-09-28T09:41:12.579Z,21.26
2014-09-28T09:42:17.270Z,21.26
2014-09-28T09:43:22.255Z,21.32
2014-09-28T09:44:26.930Z,21.5
2014-09-28T09:45:31.915Z,21.49
2014-09-28T09:46:36.606Z,21.2
2014-09-28T09:47:41.591Z,21.16
2014-09-28T09:48:46.563Z,21.29
2014-09-28T09:49:51.253Z,21.36
2014-09-28T09:50:55.942Z,21.6
2014-09-28T09:52:00.928Z,21.58
2014-09-28T09:53:05.602Z,21.79
2014-09-28T09:54:10.292Z,21.8
2014-09-28T09:55:15.278Z,21.81
2014-09-28T09:56:19.969Z,21.92
2014-09-28T09:57:24.938Z,21.84
2014-09-28T09:58:29.629Z,21.89
2014-09-28T09:59:34.317Z,22.02
2014-09-28T10:00:39.008Z,21.94
2014-09-28T10:01:43.993Z,22.39
2014-09-28T10:02:48.683Z,22.66
2014-09-28T10:03:53.655Z,23.04
2014-09-28T10:04:58.344Z,22.99
2014-09-28T10:06:03.034Z,22.92
2014-09-28T10:07:07.724Z,22.52
2014-09-28T10:08:12.694Z,22.73
2014-09-28T10:09:17.680Z,22.64
2014-09-28T10:10:22.667Z,22.86
2014-09-28T10:11:27.654Z,23.08
2014-09-28T10:12:32.342Z,23.13
2014-09-28T10:13:37.329Z,22.7
2014-09-28T10:14:42.301Z,22.66
2014-09-28T10:15:46.990Z,22.67
2014-09-28T10:16:51.680Z,22.37
2014-09-28T10:17:56.369Z,22.48
2014-09-28T10:19:01.355Z,22.9
2014-09-28T10:20:06.029Z,23.26
2014-09-28T10:21:10.719Z,23.35
2014-09-28T10:22:15.705Z,23.54
2014-09-28T10:23:20.395Z,23.17
2014-09-28T10:24:25.381Z,23.23
2014-09-28T10:25:30.056Z,23.3
2014-09-28T10:26:35.041Z,22.89
2014-09-28T10:27:39.732Z,22.93
2014-09-28T10:28:44.420Z,22.78
2014-09-28T10:29:49.705Z,22.86
2014-09-28T10:30:54.394Z,22.57
2014-09-28T10:31:59.068Z,22.66
2014-09-28T10:33:04.054Z,22.62
2014-09-28T10:34:08.744Z,22.9
2014-09-28T10:35:13.433Z,22.7
2014-09-28T10:36:18.420Z,22.92
2014-09-28T10:37:23.407Z,22.9
2014-09-28T10:38:28.096Z,22.83
2014-09-28T10:39:33.099Z,23.38
2014-09-28T10:40:38.084Z,23.2
2014-09-28T10:41:42.759Z,23.12
2014-09-28T10:42:48.042Z,22.85
2014-09-28T10:43:52.732Z,22.96
2014-09-28T10:44:57.718Z,23.05
2014-09-28T10:46:02.704Z,23.31
2014-09-28T10:47:07.691Z,23.67
2014-09-28T10:48:12.693Z,23.8
2014-09-28T10:49:17.382Z,23.96
2014-09-28T10:50:22.072Z,24.04
2014-09-28T10:51:26.074Z,23.82
2014-09-28T10:52:30.763Z,23.76
2014-09-28T10:53:35.453Z,23.99
2014-09-28T10:54:40.142Z,23.91
2014-09-28T10:55:45.130Z,24.06
2014-09-28T10:56:49.818Z,23.98
2014-09-28T10:57:54.509Z,24.31
2014-09-28T10:58:59.182Z,24.45
2014-09-28T11:00:04.169Z,24.39
2014-09-28T11:01:08.858Z,24.44
2014-09-28T11:02:13.845Z,24.66
2014-09-28T11:03:18.534Z,24.54
2014-09-28T11:04:22.536Z,24.19
2014-09-28T11:05:27.241Z,24.63
2014-09-28T11:06:31.931Z,24.65
2014-09-28T11:07:36.605Z,24.31
2014-09-28T11:08:41.607Z,23.95
2014-09-28T11:09:46.296Z,24.07
2014-09-28T11:10:51.268Z,24.14
2014-09-28T11:11:55.956Z,23.95
2014-09-28T11:13:00.646Z,24.15
2014-09-28T11:14:05.321Z,24.65
2014-09-28T11:15:10.026Z,24.31
2014-09-28T11:16:14.715Z,24.32
2014-09-28T11:17:19.685Z,24.55
2014-09-28T11:18:24.673Z,24.37
2014-09-28T11:19:29.362Z,24.3
2014-09-28T11:20:34.052Z,24.5
2014-09-28T11:21:39.022Z,24.3
2014-09-28T11:22:43.712Z,24.05
2014-09-28T11:23:48.401Z,23.81
2014-09-28T11:24:53.091Z,23.88
2014-09-28T11:25:57.766Z,23.84
2014-09-28T11:27:02.752Z,24.18
2014-09-28T11:28:07.737Z,24.26
2014-09-28T11:29:12.427Z,24.38
2014-09-28T11:30:16.726Z,24.34
2014-09-28T11:31:21.713Z,24.15
2014-09-28T11:32:26.387Z,24.14
2014-09-28T11:33:31.373Z,24.42
2014-09-28T11:34:36.360Z,24.51
2014-09-28T11:35:41.034Z,24.74
2014-09-28T11:36:45.723Z,24.81
2014-09-28T11:37:50.413Z,24.69
2014-09-28T11:38:55.087Z,24.41
2014-09-28T11:39:59.777Z,24.76
2014-09-28T11:41:04.466Z,24.85
2014-09-28T11:42:09.156Z,25.08
2014-09-28T11:43:13.846Z,25.26
2014-09-28T11:44:18.519Z,25.06
2014-09-28T11:45:23.506Z,25.1
2014-09-28T11:46:28.195Z,24.98
2014-09-28T11:47:33.182Z,24.71
2014-09-28T11:48:37.856Z,25.05
2014-09-28T11:49:42.546Z,25.08
2014-09-28T11:50:47.235Z,25.33
2014-09-28T11:51:51.908Z,25.5
2014-09-28T11:52:56.599Z,25.86
2014-09-28T11:54:01.287Z,25.67
2014-09-28T11:55:05.978Z,25.17
2014-09-28T11:56:10.666Z,25.06
2014-09-28T11:57:15.654Z,25.09
2014-09-28T11:58:20.343Z,25.12
2014-09-28T11:59:25.016Z,25.28
2014-09-28T12:00:29.707Z,25.55
2014-09-28T12:01:34.395Z,25.64
2014-09-28T12:02:39.086Z,25.77
2014-09-28T12:03:44.072Z,25.61
2014-09-28T12:04:48.746Z,25.85
2014-09-28T12:05:53.435Z,25.89
2014-09-28T12:06:58.126Z,25.78
2014-09-28T12:08:02.814Z,25.82
2014-09-28T12:09:07.488Z,25.85
2014-09-28T12:10:12.475Z,25.79
2014-09-28T12:11:17.164Z,25.66
2014-09-28T12:12:21.855Z,25.78
2014-09-28T12:13:26.543Z,25.77
2014-09-28T12:14:31.234Z,26.12
2014-09-28T12:15:35.908Z,26.01
2014-09-28T12:16:40.597Z,25.98
2014-09-28T12:17:45.287Z,26.18
2014-09-28T12:18:49.976Z,26.36
2014-09-28T12:19:54.666Z,26.36
2014-09-28T12:20:59.356Z,25.81
2014-09-28T12:22:04.046Z,26.07
2014-09-28T12:23:08.735Z,26.3
2014-09-28T12:24:13.424Z,26.21
2014-09-28T12:25:18.114Z,26.41
2014-09-28T12:26:22.804Z,26.35
2014-09-28T12:27:27.476Z,26.23
2014-09-28T12:28:32.167Z,26.03
2014-09-28T12:29:36.856Z,25.37
2014-09-28T12:30:41.546Z,25.66
2014-09-28T12:31:46.235Z,25.44
2014-09-28T12:32:50.925Z,25.37
2014-09-28T12:33:55.599Z,25.08
2014-09-28T12:35:00.288Z,25.1
2014-09-28T12:36:05.275Z,24.73
2014-09-28T12:37:09.964Z,25.04
2014-09-28T12:38:14.654Z,25.29
2014-09-28T12:39:19.328Z,25.62
2014-09-28T12:40:24.345Z,25.73
2014-09-28T12:41:29.020Z,25.56
2014-09-28T12:42:33.709Z,25.35
2014-09-28T12:43:38.696Z,24.78
2014-09-28T12:44:43.385Z,24.87
2014-09-28T12:45:48.074Z,25.47
2014-09-28T12:46:53.046Z,25.76
2014-09-28T12:47:57.048Z,25.6
2014-09-28T12:49:02.331Z,25.73
2014-09-28T12:50:07.020Z,25.89
2014-09-28T12:51:11.991Z,25.83
2014-09-28T12:52:16.720Z,25.61
2014-09-28T12:53:21.453Z,25.61
2014-09-28T12:54:26.188Z,25.29
2014-09-28T12:55:30.921Z,24.79
2014-09-28T12:56:35.649Z,24.88
2014-09-28T12:57:40.353Z,25.02
2014-09-28T12:58:45.059Z,25.38
2014-09-28T12:59:49.077Z,25.58
2014-09-28T13:00:53.782Z,25.65
2014-09-28T13:01:58.466Z,25.74
2014-09-28T13:03:03.161Z,25.28
2014-09-28T13:04:07.857Z,25.3
2014-09-28T13:05:12.848Z,25.47
2014-09-28T13:06:17.544Z,25.68
2014-09-28T13:07:22.518Z,25.89
2014-09-28T13:08:27.506Z,25.79
2014-09-28T13:09:32.198Z,25.84
2014-09-28T13:10:36.889Z,25.58
2014-09-28T13:11:41.565Z,25.7
2014-09-28T13:12:46.254Z,25.55
2014-09-28T13:13:50.946Z,25.36
2014-09-28T13:14:55.636Z,25.16
2014-09-28T13:16:00.310Z,24.99
2014-09-28T13:17:05.016Z,25.15
2014-09-28T13:18:09.707Z,25.4
2014-09-28T13:19:14.396Z,24.91
2014-09-28T13:20:19.383Z,25.35
2014-09-28T13:21:24.073Z,25.6
2014-09-28T13:22:28.746Z,25.77
2014-09-28T13:23:33.734Z,24.9
2014-09-28T13:24:38.720Z,25.06
2014-09-28T13:25:43.409Z,24.34
2014-09-28T13:26:48.099Z,24.77
2014-09-28T13:27:52.788Z,24.83
2014-09-28T13:28:57.462Z,25.16
2014-09-28T13:30:02.168Z,25.56
2014-09-28T13:31:06.857Z,25.63
2014-09-28T13:32:11.829Z,25.56
2014-09-28T13:33:16.815Z,25.43
2014-09-28T13:34:21.505Z,25.45
2014-09-28T13:35:26.491Z,25.42
2014-09-28T13:36:31.180Z,25.55
2014-09-28T13:37:35.870Z,25.68
2014-09-28T13:38:40.856Z,25.45
2014-09-28T13:39:45.530Z,25.51
2014-09-28T13:40:50.220Z,25.76
2014-09-28T13:41:54.925Z,25.92
2014-09-28T13:42:59.599Z,25.7
2014-09-28T13:44:04.288Z,25.82
2014-09-28T13:45:08.978Z,25.9
2014-09-28T13:46:13.683Z,25.8
2014-09-28T13:47:18.358Z,25.77
2014-09-28T13:48:23.046Z,25.88
2014-09-28T13:49:28.034Z,25.78
2014-09-28T13:50:32.739Z,25.8
2014-09-28T13:51:37.428Z,25.87
2014-09-28T13:52:42.118Z,25.76
2014-09-28T13:53:46.792Z,25.35
2014-09-28T13:54:51.481Z,25.28
2014-09-28T13:55:56.171Z,25.37
2014-09-28T13:57:00.861Z,25.42
2014-09-28T13:58:05.863Z,25.57